This is the latest recevied weather packets stored in our database for station/object N8BAP. If no packets are shown the sender has not sent any weather packets the latest 10 day(s).
| Time | Temp. | Humidity | Pressure | Rain* | Wind** | Luminosity | Snow |
|---|---|---|---|---|---|---|---|
| 1777796098 | 2.78° C | 77% | 1023 hPa | 0 mm | - | 0 W/m² | - |
| 1777795795 | 2.78° C | 78% | 1022.8 hPa | 0 mm | - | 0 W/m² | - |
| 1777795491 | 2.78° C | 79% | 1022.8 hPa | 0 mm | - | 0 W/m² | - |
| 1777795188 | 2.78° C | 79% | 1023 hPa | 0 mm | - | 0 W/m² | - |
| 1777794885 | 2.78° C | 79% | 1023 hPa | 0 mm | - | 0 W/m² | - |
| 1777794582 | 2.78° C | 80% | 1022.8 hPa | 0 mm | - | 0 W/m² | - |
| 1777794277 | 2.78° C | 79% | 1022.5 hPa | 0 mm | - | 0 W/m² | - |
| 1777793973 | 2.78° C | 79% | 1022.6 hPa | 0 mm | - | 0 W/m² | - |
| 1777793670 | 2.78° C | 80% | 1022.8 hPa | 0 mm | - | 0 W/m² | - |
| 1777793368 | 2.22° C | 81% | 1022.7 hPa | 0 mm | - | 0 W/m² | - |
| 1777793065 | 2.22° C | 81% | 1022.8 hPa | 0 mm | - | 0 W/m² | - |
| 1777792762 | 2.22° C | 82% | 1022.8 hPa | 0 mm | - | 0 W/m² | - |
| 1777792459 | 2.22° C | 81% | 1022.9 hPa | 0 mm | - | 0 W/m² | - |
| 1777792155 | 2.78° C | 79% | 1022.8 hPa | 0 mm | - | 0 W/m² | - |
| 1777791853 | 2.78° C | 80% | 1022.8 hPa | 0 mm | - | 0 W/m² | - |
| 1777791551 | 2.78° C | 81% | 1022.8 hPa | 0 mm | - | 0 W/m² | - |
| 1777791248 | 2.22° C | 83% | 1022.8 hPa | 0 mm | - | 0 W/m² | - |
| 1777790945 | 2.22° C | 87% | 1023 hPa | 0 mm | - | 0 W/m² | - |
| 1777790643 | 1.67° C | 92% | 1022.9 hPa | 0 mm | - | 0 W/m² | - |
| 1777790339 | 1.11° C | 94% | 1022.9 hPa | 0 mm | - | 0 W/m² | - |
| 1777790037 | 0.56° C | 94% | 1022.8 hPa | 0 mm | - | 0 W/m² | - |
| 1777789735 | 0.56° C | 94% | 1023 hPa | 0 mm | - | 0 W/m² | - |
| 1777789434 | 0.56° C | 94% | 1022.8 hPa | 0 mm | - | 0 W/m² | - |
| 1777789132 | 0.56° C | 94% | 1023.2 hPa | 0 mm | - | 0 W/m² | - |
| 1777788828 | 0.56° C | 94% | 1022.9 hPa | 0 mm | - | 0 W/m² | - |
* Rain latest hour (hover to see other rain measurements)
** Current wind speed in m/s (hover to see current wind gust speed)